createdAt,value
2017-09-29T00:00:39.530Z,30.75
2017-09-29T00:03:08.510Z,30.65
2017-09-29T00:05:37.859Z,29.48
2017-09-29T00:08:08.610Z,33.80
2017-09-29T00:10:37.591Z,31.87
2017-09-29T00:13:06.582Z,36.13
2017-09-29T00:15:35.590Z,29.10
2017-09-29T00:18:04.525Z,30.10
2017-09-29T00:20:33.493Z,29.70
2017-09-29T00:23:02.518Z,33.85
2017-09-29T00:25:31.543Z,34.60
2017-09-29T00:28:00.557Z,35.33
2017-09-29T00:30:29.618Z,32.25
2017-09-29T00:33:00.450Z,31.95
2017-09-29T00:35:30.266Z,33.22
2017-09-29T00:38:00.016Z,30.73
2017-09-29T00:40:29.089Z,32.85
2017-09-29T00:42:58.098Z,31.33
2017-09-29T00:45:27.131Z,29.50
2017-09-29T00:47:56.166Z,35.00
2017-09-29T00:50:25.218Z,37.30
2017-09-29T00:52:54.230Z,34.03
2017-09-29T00:55:24.019Z,32.13
2017-09-29T00:57:53.027Z,34.20
2017-09-29T01:00:25.427Z,33.22
2017-09-29T01:02:55.199Z,31.30
2017-09-29T01:05:24.221Z,31.10
2017-09-29T01:07:54.033Z,33.10
2017-09-29T01:10:23.817Z,30.55
2017-09-29T01:12:52.787Z,28.20
2017-09-29T01:15:21.917Z,26.52
2017-09-29T01:17:51.084Z,26.95
2017-09-29T01:20:20.213Z,25.12
2017-09-29T01:22:49.310Z,25.75
2017-09-29T01:25:19.153Z,26.02
2017-09-29T01:27:48.237Z,25.10
2017-09-29T01:30:18.083Z,26.92
2017-09-29T01:32:47.153Z,25.02
2017-09-29T01:35:16.216Z,25.55
2017-09-29T01:37:45.241Z,23.75
2017-09-29T01:40:14.247Z,23.10
2017-09-29T01:42:43.466Z,22.40
2017-09-29T01:45:12.620Z,26.40
2017-09-29T01:47:43.653Z,22.70
2017-09-29T01:50:13.493Z,25.42
2017-09-29T01:52:42.696Z,25.88
2017-09-29T01:55:11.945Z,25.45
2017-09-29T01:57:41.158Z,26.37
2017-09-29T02:00:11.010Z,23.42
2017-09-29T02:02:40.187Z,25.35
2017-09-29T02:05:09.544Z,28.00
2017-09-29T02:07:39.486Z,29.80
2017-09-29T02:10:09.834Z,33.50
2017-09-29T02:12:38.910Z,34.50
2017-09-29T02:15:08.859Z,34.53
2017-09-29T02:17:38.667Z,36.92
2017-09-29T02:20:07.861Z,35.65
2017-09-29T02:22:37.048Z,35.20
2017-09-29T07:20:49.672Z,26.17
2017-09-29T07:23:19.505Z,24.80
2017-09-29T07:25:54.546Z,23.55
2017-09-29T07:28:26.654Z,22.92
2017-09-29T07:31:01.834Z,22.80
2017-09-29T07:33:31.709Z,23.23
2017-09-29T07:36:00.947Z,22.65
2017-09-29T07:38:31.008Z,23.58
2017-09-29T07:41:00.010Z,25.12
2017-09-29T07:43:29.355Z,25.67
2017-09-29T07:45:59.304Z,28.52
2017-09-29T07:48:28.458Z,25.75
2017-09-29T07:50:57.504Z,23.90
2017-09-29T07:53:26.593Z,26.37
2017-09-29T07:55:55.823Z,24.73
2017-09-29T07:58:24.926Z,27.48
2017-09-29T08:00:54.853Z,26.10
2017-09-29T08:03:23.965Z,27.13
2017-09-29T08:05:53.861Z,25.58
2017-09-29T08:08:22.949Z,25.45
2017-09-29T08:10:52.055Z,22.15
2017-09-29T08:13:22.039Z,27.85
2017-09-29T08:15:51.880Z,23.90
2017-09-29T08:18:22.433Z,22.30
2017-09-29T08:20:52.852Z,24.55
2017-09-29T08:23:22.686Z,22.33
2017-09-29T08:25:51.856Z,22.48
2017-09-29T08:28:20.993Z,21.58
2017-09-29T08:30:50.203Z,22.48
2017-09-29T08:33:20.065Z,23.92
2017-09-29T08:35:49.988Z,24.00
2017-09-29T08:38:19.857Z,22.77
2017-09-29T08:40:49.488Z,24.30
2017-09-29T08:43:22.445Z,24.92
2017-09-29T08:45:52.292Z,23.50
2017-09-29T08:48:22.328Z,23.00
2017-09-29T08:50:52.350Z,24.75
2017-09-29T08:53:21.514Z,22.87
2017-09-29T08:55:50.789Z,24.05
2017-09-29T08:58:20.645Z,25.30
2017-09-29T09:00:50.744Z,23.75
2017-09-29T09:03:19.823Z,22.48
2017-09-29T09:05:49.442Z,22.52
2017-09-29T09:08:24.301Z,23.00
2017-09-29T09:10:54.164Z,23.70
2017-09-29T09:13:24.184Z,23.30
2017-09-29T09:15:54.352Z,24.52
2017-09-29T09:18:25.392Z,24.95
2017-09-29T09:20:55.190Z,26.27
2017-09-29T09:23:25.353Z,24.60
2017-09-29T09:25:55.180Z,24.33
2017-09-29T09:28:25.866Z,25.30
2017-09-29T09:30:56.001Z,26.10
2017-09-29T09:33:25.255Z,25.75
2017-09-29T09:35:55.198Z,26.35
2017-09-29T09:38:25.040Z,24.50
2017-09-29T09:40:54.235Z,26.30
2017-09-29T09:43:23.395Z,26.17
2017-09-29T09:45:53.314Z,27.02
2017-09-29T09:48:23.234Z,26.67
2017-09-29T09:50:53.253Z,25.02
2017-09-29T09:53:23.115Z,24.42
2017-09-29T09:55:53.135Z,26.70
2017-09-29T09:58:23.026Z,25.10
2017-09-29T10:00:52.305Z,26.92
2017-09-29T10:03:22.197Z,25.10
2017-09-29T10:05:52.206Z,24.48
2017-09-29T10:08:22.042Z,25.30
2017-09-29T10:10:52.271Z,26.05
2017-09-29T10:13:21.347Z,24.37
2017-09-29T10:15:51.357Z,23.38
2017-09-29T10:18:21.323Z,23.52
2017-09-29T10:20:51.098Z,25.23
2017-09-29T10:23:21.120Z,22.83
2017-09-29T10:25:51.082Z,23.58
2017-09-29T10:28:20.333Z,22.60
2017-09-29T10:30:50.412Z,22.25
2017-09-29T10:33:21.247Z,24.35
2017-09-29T10:35:50.594Z,20.50
2017-09-29T10:38:19.861Z,22.90
2017-09-29T10:40:50.004Z,20.75
2017-09-29T10:43:20.022Z,22.35
2017-09-29T10:45:50.562Z,20.42
2017-09-29T10:51:51.209Z,20.67
2017-09-29T10:54:21.120Z,21.55
2017-09-29T10:56:51.037Z,20.45
2017-09-29T10:59:21.084Z,20.48
2017-09-29T11:01:50.300Z,20.50
2017-09-29T11:04:20.315Z,19.67
2017-09-29T11:06:50.245Z,18.67
2017-09-29T11:09:19.477Z,18.12
2017-09-29T11:11:49.575Z,17.45
2017-09-29T11:14:18.673Z,15.90
2017-09-29T11:16:47.984Z,16.00
2017-09-29T11:21:59.249Z,15.45
2017-09-29T11:24:28.779Z,14.55
2017-09-29T11:27:05.673Z,12.98
2017-09-29T11:29:35.564Z,12.68
2017-09-29T11:32:05.564Z,13.93
2017-09-29T11:34:35.418Z,12.15
2017-09-29T11:37:05.348Z,12.10
2017-09-29T11:39:34.637Z,15.20
2017-09-29T11:42:03.888Z,15.25
2017-09-29T11:44:33.209Z,15.15
2017-09-29T11:47:02.333Z,15.43
2017-09-29T11:49:32.202Z,12.85
2017-09-29T11:52:05.523Z,12.13
2017-09-29T11:54:35.167Z,12.02
2017-09-29T11:57:04.555Z,11.00
2017-09-29T11:59:37.133Z,8.55
2017-09-29T12:02:07.900Z,11.63
2017-09-29T12:04:37.865Z,12.15
2017-09-29T12:07:06.960Z,12.50
2017-09-29T12:09:37.016Z,10.10
2017-09-29T12:12:06.909Z,9.05
2017-09-29T12:14:36.783Z,10.90
2017-09-29T12:17:05.825Z,14.95
2017-09-29T12:19:34.973Z,11.07
2017-09-29T12:22:04.839Z,12.25
2017-09-29T12:24:34.948Z,10.88
2017-09-29T12:27:04.524Z,10.00
2017-09-29T12:29:33.611Z,10.43
2017-09-29T12:32:02.782Z,11.07
2017-09-29T12:34:32.923Z,9.73
2017-09-29T12:37:02.837Z,9.43
2017-09-29T12:39:32.008Z,11.02
2017-09-29T12:42:01.206Z,11.18
2017-09-29T12:44:30.287Z,9.77
2017-09-29T12:46:59.332Z,10.75
2017-09-29T12:49:28.967Z,12.13
2017-09-29T12:51:59.479Z,10.10
2017-09-29T12:54:29.335Z,9.73
2017-09-29T12:56:58.455Z,10.25
2017-09-29T12:59:27.538Z,10.80
2017-09-29T13:01:57.415Z,10.45
2017-09-29T13:04:27.290Z,10.50
2017-09-29T13:06:56.561Z,10.15
2017-09-29T13:09:25.716Z,11.57
2017-09-29T13:11:54.764Z,9.82
2017-09-29T13:14:23.880Z,9.95
2017-09-29T13:16:53.488Z,10.18
2017-09-29T13:19:22.601Z,10.82
2017-09-29T13:21:51.789Z,9.80
2017-09-29T13:24:20.848Z,9.35
2017-09-29T13:26:49.950Z,8.15
2017-09-29T13:29:19.312Z,8.85
2017-09-29T13:31:49.317Z,8.43
2017-09-29T13:34:22.210Z,9.88
2017-09-29T13:36:52.986Z,8.10
2017-09-29T13:39:22.155Z,8.95
2017-09-29T13:41:52.235Z,9.50
2017-09-29T13:44:21.562Z,8.70
2017-09-29T13:50:22.523Z,10.35
2017-09-29T13:52:52.664Z,10.85
2017-09-29T13:55:21.754Z,9.57
2017-09-29T13:57:50.969Z,10.45
2017-09-29T14:00:20.188Z,9.80
2017-09-29T14:02:49.396Z,10.48
2017-09-29T14:05:18.617Z,9.98
2017-09-29T14:07:48.059Z,10.38
2017-09-29T14:10:17.159Z,11.95
2017-09-29T14:12:46.573Z,10.20
2017-09-29T14:15:16.628Z,10.23
2017-09-29T14:20:29.217Z,11.05
2017-09-29T14:22:58.520Z,10.85
2017-09-29T14:25:27.768Z,10.68
2017-09-29T14:27:57.051Z,10.02
2017-09-29T14:30:26.230Z,10.60
2017-09-29T14:32:55.682Z,10.93
2017-09-29T14:35:25.765Z,10.70
2017-09-29T14:37:54.873Z,12.32
2017-09-29T14:40:24.090Z,10.63
2017-09-29T14:42:54.014Z,9.98
2017-09-29T14:45:23.095Z,11.52
2017-09-29T14:47:53.061Z,10.20
2017-09-29T14:50:22.228Z,9.40
2017-09-29T14:52:52.042Z,10.05
2017-09-29T14:55:21.219Z,10.75
2017-09-29T14:57:51.934Z,11.15
2017-09-29T15:00:21.088Z,11.88
2017-09-29T15:02:50.306Z,11.38
2017-09-29T15:05:19.577Z,11.38
2017-09-29T15:07:48.939Z,11.98
2017-09-29T15:10:18.868Z,11.25
2017-09-29T15:12:47.849Z,11.68
2017-09-29T15:15:17.882Z,11.55
2017-09-29T15:17:47.865Z,11.95
2017-09-29T15:20:16.917Z,11.63
2017-09-29T15:22:46.166Z,11.02
2017-09-29T15:25:16.078Z,11.43
2017-09-29T15:27:45.250Z,11.93
2017-09-29T15:30:16.318Z,12.05
2017-09-29T15:32:46.336Z,11.68
2017-09-29T15:35:15.537Z,12.98
2017-09-29T15:37:44.669Z,11.18
2017-09-29T15:40:14.511Z,11.75
2017-09-29T15:42:43.630Z,10.25
2017-09-29T15:45:12.771Z,10.50
2017-09-29T15:47:41.982Z,10.43
2017-09-29T15:50:11.138Z,11.18
2017-09-29T15:52:41.284Z,10.65
2017-09-29T15:55:10.593Z,11.70
2017-09-29T15:57:39.806Z,10.57
2017-09-29T16:00:10.647Z,10.85
2017-09-29T16:02:40.066Z,10.60
2017-09-29T16:05:09.238Z,14.15
2017-09-29T16:07:38.378Z,13.65
2017-09-29T16:10:08.390Z,12.52
2017-09-29T16:12:37.509Z,9.60
2017-09-29T16:15:07.815Z,11.45
2017-09-29T16:17:36.919Z,10.60
2017-09-29T16:20:05.946Z,10.90
2017-09-29T16:22:35.111Z,10.70
2017-09-29T16:25:05.786Z,11.02
2017-09-29T16:27:34.934Z,10.60
2017-09-29T16:30:04.904Z,10.77
2017-09-29T16:32:35.101Z,9.95
2017-09-29T16:35:05.178Z,11.98
2017-09-29T16:37:34.279Z,12.10
2017-09-29T16:40:04.787Z,12.40
2017-09-29T16:42:34.155Z,11.60
2017-09-29T16:45:05.996Z,13.82
2017-09-29T16:47:35.854Z,15.95
2017-09-29T16:50:13.628Z,15.55
2017-09-29T16:52:43.650Z,17.12
2017-09-29T16:55:14.607Z,18.30
2017-09-29T16:57:43.763Z,17.92
2017-09-29T17:00:12.949Z,18.35
2017-09-29T17:02:42.916Z,19.50
2017-09-29T17:05:12.136Z,17.70
2017-09-29T17:07:41.279Z,18.80
2017-09-29T17:10:11.771Z,19.90
2017-09-29T17:12:41.759Z,18.73
2017-09-29T17:15:10.955Z,19.83
2017-09-29T17:17:40.949Z,20.92
2017-09-29T17:20:10.097Z,19.52
2017-09-29T17:22:39.214Z,19.90
2017-09-29T17:25:09.231Z,20.42
2017-09-29T17:27:38.436Z,20.27
2017-09-29T17:30:08.359Z,19.70
2017-09-29T17:32:38.563Z,22.70
2017-09-29T17:35:07.670Z,19.17
2017-09-29T17:37:37.590Z,20.60
2017-09-29T17:40:06.801Z,19.75
2017-09-29T17:42:35.881Z,21.70
2017-09-29T17:45:05.880Z,21.58
2017-09-29T17:47:36.315Z,23.08
2017-09-29T17:50:06.444Z,22.70
2017-09-29T17:52:35.595Z,24.15
2017-09-29T17:55:05.924Z,25.98
2017-09-29T17:57:35.048Z,25.23
2017-09-29T18:00:05.961Z,24.83
2017-09-29T18:02:35.377Z,24.30
2017-09-29T18:05:05.890Z,27.20
2017-09-29T18:07:37.679Z,26.52
2017-09-29T18:10:06.833Z,26.35
2017-09-29T18:15:19.235Z,27.40
2017-09-29T18:17:48.352Z,27.70
2017-09-29T18:20:17.362Z,28.35
2017-09-29T18:22:46.462Z,27.27
2017-09-29T18:25:16.979Z,26.95
2017-09-29T18:27:46.104Z,28.62
2017-09-29T18:30:16.037Z,29.33
2017-09-29T18:32:45.442Z,28.38
2017-09-29T18:35:14.503Z,27.98
2017-09-29T18:37:44.425Z,27.70
2017-09-29T18:40:15.120Z,28.85
2017-09-29T18:42:45.225Z,27.52
2017-09-29T18:45:14.401Z,27.77
2017-09-29T18:47:43.599Z,27.62
2017-09-29T18:50:12.693Z,26.23
2017-09-29T18:52:42.764Z,28.50
2017-09-29T18:55:12.072Z,26.17
2017-09-29T18:57:42.076Z,27.37
2017-09-29T19:00:11.344Z,28.35
2017-09-29T19:02:40.625Z,27.33
2017-09-29T19:05:10.906Z,26.80
2017-09-29T19:07:40.054Z,26.50
2017-09-29T19:10:09.336Z,26.55
2017-09-29T19:12:38.464Z,26.70
2017-09-29T19:15:09.123Z,25.10
2017-09-29T19:17:38.619Z,26.42
2017-09-29T19:20:07.808Z,26.62
2017-09-29T19:22:36.906Z,26.62
2017-09-29T19:25:06.162Z,25.27
2017-09-29T19:27:35.321Z,25.12
2017-09-29T19:30:06.007Z,26.95
2017-09-29T19:32:35.202Z,27.60
2017-09-29T19:35:04.663Z,26.12
2017-09-29T19:37:33.882Z,26.27
2017-09-29T19:40:04.089Z,25.15
2017-09-29T19:42:34.928Z,25.85
2017-09-29T19:45:04.258Z,25.35
2017-09-29T19:51:06.555Z,25.50
2017-09-29T19:53:36.782Z,24.65
2017-09-29T19:56:05.907Z,24.90
2017-09-29T19:58:35.966Z,25.60
2017-09-29T20:01:05.066Z,25.40
2017-09-29T20:03:34.923Z,23.92
2017-09-29T20:06:04.068Z,26.30
2017-09-29T20:08:34.555Z,25.02
2017-09-29T20:11:06.422Z,25.83
2017-09-29T20:13:35.891Z,24.50
2017-09-29T20:16:05.190Z,22.58
2017-09-29T20:18:34.369Z,22.25
2017-09-29T20:21:04.245Z,24.73
2017-09-29T20:23:34.024Z,22.92
2017-09-29T20:26:03.283Z,22.87
2017-09-29T20:28:33.161Z,23.48
2017-09-29T20:31:02.327Z,21.48
2017-09-29T20:33:34.238Z,24.10
2017-09-29T20:36:04.813Z,23.12
2017-09-29T20:38:34.992Z,22.95
2017-09-29T20:41:05.591Z,23.02
2017-09-29T20:43:36.055Z,24.27
2017-09-29T20:46:05.964Z,24.58
2017-09-29T20:48:35.886Z,21.70
2017-09-29T20:51:06.484Z,23.25
2017-09-29T20:53:35.840Z,23.02
2017-09-29T20:56:08.543Z,21.50
2017-09-29T20:58:37.586Z,23.38
2017-09-29T21:01:37.262Z,24.25
2017-09-29T21:04:06.329Z,22.67
2017-09-29T21:06:35.383Z,24.73
2017-09-29T21:09:04.675Z,24.02
2017-09-29T21:11:33.749Z,24.95
2017-09-29T21:14:05.083Z,25.40
2017-09-29T21:16:36.164Z,24.90
2017-09-29T21:19:05.238Z,23.90
2017-09-29T21:21:34.224Z,21.95
2017-09-29T21:24:04.488Z,22.08
2017-09-29T21:26:34.335Z,21.25
2017-09-29T21:29:03.553Z,22.70
2017-09-29T21:31:33.269Z,20.35
2017-09-29T21:34:02.565Z,21.55
2017-09-29T21:36:31.897Z,20.05
2017-09-29T21:39:00.934Z,22.02
2017-09-29T21:44:29.374Z,22.35
2017-09-29T21:46:58.408Z,23.05
2017-09-29T21:49:28.329Z,23.40
2017-09-29T21:51:58.217Z,23.52
2017-09-29T21:54:28.118Z,22.90
2017-09-29T21:56:57.160Z,22.23
2017-09-29T21:59:26.939Z,22.55
2017-09-29T22:01:56.037Z,23.40
2017-09-29T22:04:25.069Z,24.45
2017-09-29T22:06:54.900Z,24.40
2017-09-29T22:09:24.391Z,25.35
2017-09-29T22:11:53.537Z,26.70
2017-09-29T22:14:23.024Z,25.50
2017-09-29T22:16:52.346Z,25.85
2017-09-29T22:19:23.618Z,24.37
2017-09-29T22:21:53.004Z,23.90
2017-09-29T22:24:22.744Z,24.80
2017-09-29T22:26:52.329Z,23.98
2017-09-29T22:29:21.812Z,25.58
2017-09-29T22:31:51.205Z,23.95
2017-09-29T22:34:20.702Z,23.98
2017-09-29T22:36:51.926Z,25.77
2017-09-29T22:39:21.398Z,24.73
2017-09-29T22:41:51.579Z,24.48
2017-09-29T22:44:20.777Z,22.92
2017-09-29T22:46:49.819Z,23.08
2017-09-29T22:49:18.806Z,24.77
2017-09-29T22:51:47.852Z,23.48
2017-09-29T22:54:16.938Z,24.65
2017-09-29T22:56:45.952Z,25.00
2017-09-29T22:59:14.969Z,22.45
2017-09-29T23:01:44.784Z,22.00
2017-09-29T23:04:14.567Z,22.23
2017-09-29T23:06:43.588Z,22.75
2017-09-29T23:09:13.397Z,22.62
2017-09-29T23:11:43.258Z,23.42
2017-09-29T23:14:12.352Z,23.45
2017-09-29T23:16:41.408Z,23.92
2017-09-29T23:19:10.496Z,23.73
2017-09-29T23:21:40.287Z,24.17
2017-09-29T23:24:09.305Z,24.30
2017-09-29T23:26:39.040Z,24.50
2017-09-29T23:29:08.090Z,24.77
2017-09-29T23:31:37.207Z,25.42
2017-09-29T23:34:07.006Z,24.85
2017-09-29T23:36:36.840Z,26.30
2017-09-29T23:39:06.069Z,25.17
2017-09-29T23:41:35.058Z,24.73
2017-09-29T23:44:04.082Z,24.50
2017-09-29T23:46:33.087Z,25.60
2017-09-29T23:49:02.071Z,24.35
2017-09-29T23:51:31.063Z,24.80
2017-09-29T23:54:00.082Z,24.42
2017-09-29T23:56:29.842Z,24.65
2017-09-29T23:58:58.842Z,26.30
